M I D A S
Marine Information and Data Acquisition System
Tripno 1240 of the Zeeleeuw from 2007-03-27 08:20:43 to 2007-03-27 14:35:07
Back to CruiseResearch ActivitiesStationsMapUnderway DataData graphs

EquipmentUnitsComments
TimeDGPSUTC
LatitudeDGPSDM.mWGS84
LongitudeDGPSDM.mWGS84
SpeedMeteo Stationm/sRelative wind speed
DirectionMeteo StationdegRelative wind direction
TemperatureMeteo Stationdeg CelciusAir temperature
PressureMeteo StationPaAtmospheric pressure
HumidityMeteo Station%Relative humidity
Missing or incorrect values are displayed as -999
Metereological data collected by the RV Zeeleeuw from 2007-03-27 07:28:17 to 2007-03-27 14:44:08
Time Latitude Longitude Speed Direction Temperature Pressure Humidity
2007-03-27 07:29 51°13.602 2°56.1 5.2 286 8.3 101680 71
2007-03-27 07:30 51°13.602 2°56.099 3.6 284 8.3 101680 70
2007-03-27 07:31 51°13.602 2°56.1 4.7 285 8.4 101680 70
2007-03-27 07:32 51°13.603 2°56.1 4.2 285 8.4 101680 70
2007-03-27 07:33 51°13.603 2°56.1 4.7 279 8.4 101680 70
2007-03-27 07:34 51°13.603 2°56.1 3.3 285 8.4 101680 70
2007-03-27 07:35 51°13.603 2°56.099 3.9 284 8.5 101690 70
2007-03-27 07:36 51°13.602 2°56.099 4.5 285 8.5 101690 70
2007-03-27 07:37 51°13.603 2°56.099 3.7 282 8.6 101680 69
2007-03-27 07:38 51°13.603 2°56.099 5 285 8.6 101690 70
2007-03-27 07:39 51°13.602 2°56.099 3.5 281 8.7 101690 69
2007-03-27 07:40 51°13.602 2°56.099 5 282 8.7 101680 69
2007-03-27 07:41 51°13.602 2°56.1 5 285 8.8 101690 69
2007-03-27 07:42 51°13.602 2°56.1 3.7 282 8.8 101690 68
2007-03-27 07:43 51°13.602 2°56.1 3.7 283 8.9 101690 68
2007-03-27 07:44 51°13.602 2°56.1 4.6 284 8.9 101690 68
2007-03-27 07:45 51°13.602 2°56.1 4.6 285 8.9 101680 68
2007-03-27 07:46 51°13.603 2°56.1 3.7 283 8.9 101680 67
2007-03-27 07:47 51°13.603 2°56.1 3.6 282 9 101680 68
2007-03-27 07:48 51°13.603 2°56.1 4.1 285 9.1 101680 67
2007-03-27 07:49 51°13.603 2°56.1 3.7 278 9.1 101680 67
2007-03-27 07:50 51°13.604 2°56.1 4.1 285 9.2 101680 67
2007-03-27 07:51 51°13.603 2°56.1 4.4 279 9.2 101680 67
2007-03-27 07:52 51°13.603 2°56.1 3.4 284 9.2 101680 67
2007-03-27 07:53 51°13.603 2°56.1 5.6 286 9.3 101690 67
2007-03-27 07:54 51°13.603 2°56.1 4.8 284 9.3 101680 66
2007-03-27 07:55 51°13.603 2°56.1 3 286 9.3 101690 66
2007-03-27 07:56 51°13.602 2°56.101 3.7 285 9.4 101680 66
2007-03-27 07:57 51°13.602 2°56.1 5.1 284 9.4 101690 66
2007-03-27 07:58 51°13.602 2°56.101 4.8 281 9.4 101680 66
2007-03-27 07:59 51°13.602 2°56.1 4.6 279 9.4 101690 66
2007-03-27 08:00 51°13.602 2°56.101 5.1 287 9.4 101680 66
2007-03-27 08:01 51°13.602 2°56.101 4.3 285 9.4 101680 65
2007-03-27 08:02 51°13.602 2°56.101 4.4 280 9.5 101680 65
2007-03-27 08:03 51°13.602 2°56.101 3.7 281 9.5 101680 65
2007-03-27 08:04 51°13.602 2°56.101 3.4 280 9.6 101680 65
2007-03-27 08:05 51°13.602 2°56.101 5.4 284 9.6 101680 65
2007-03-27 08:06 51°13.597 2°56.099 4.5 323 9.7 101680 65
2007-03-27 08:07 51°13.598 2°56.099 2.4 283 9.7 101680 65
2007-03-27 08:08 51°13.599 2°56.1 4.6 280 9.7 101680 65
2007-03-27 08:09 51°13.599 2°56.099 3.2 280 9.7 101680 64
2007-03-27 08:10 51°13.599 2°56.099 3.6 331 9.7 101680 64
2007-03-27 08:11 51°13.602 2°56.1 3.6 278 9.8 101690 65
2007-03-27 08:12 51°13.603 2°56.1 3.9 285 9.8 101690 64
2007-03-27 08:13 51°13.6 2°56.099 3.7 279 9.8 101680 64
2007-03-27 08:14 51°13.602 2°56.1 4.4 279 9.8 101690 64
2007-03-27 08:15 51°13.602 2°56.1 4 325 9.8 101690 64
2007-03-27 08:16 51°13.599 2°56.099 3.4 280 9.8 101690 64
2007-03-27 08:17 51°13.601 2°56.1 3.8 324 9.9 101690 64
2007-03-27 08:18 51°13.6 2°56.1 4.8 279 10 101690 64
2007-03-27 08:19 51°13.601 2°56.1 3.8 280 10 101690 63
2007-03-27 08:20 51°13.601 2°56.1 2.6 284 10 101690 63
2007-03-27 08:21 51°13.604 2°56.092 2.7 278 10.1 101690 64
2007-03-27 08:22 51°13.623 2°56.02 1.9 345 10.1 101690 63
2007-03-27 08:23 51°13.655 2°55.914 1.3 284 10.2 101690 63
2007-03-27 08:24 51°13.688 2°55.817 1.9 280 10.3 101690 63
2007-03-27 08:25 51°13.705 2°55.742 2.8 348 10.4 101690 62
2007-03-27 08:26 51°13.709 2°55.713 3.4 4 10.3 101680 61
2007-03-27 08:27 51°13.722 2°55.712 4.1 22 10.2 101680 62
2007-03-27 08:28 51°13.761 2°55.69 2.9 13 10.2 101690 63
2007-03-27 08:29 51°13.849 2°55.618 1.6 38 10.2 101690 62
2007-03-27 08:30 51°13.971 2°55.528 3.3 10 10.3 101690 62
2007-03-27 08:31 51°14.103 2°55.432 2.2 358 10.3 101680 62
2007-03-27 08:32 51°14.232 2°55.309 2.3 359 10.3 101680 62
2007-03-27 08:33 51°14.351 2°55.089 1.1 358 10.3 101680 62
2007-03-27 08:34 51°14.477 2°54.801 1.1 284 10.2 101680 62
2007-03-27 08:35 51°14.583 2°54.493 1.3 344 10.3 101680 62
2007-03-27 08:36 51°14.644 2°54.17 2.2 282 10.4 101680 62
2007-03-27 08:37 51°14.668 2°53.829 2.8 285 10.4 101690 62
2007-03-27 08:38 51°14.692 2°53.498 3.8 286 10.4 101690 63
2007-03-27 08:39 51°14.719 2°53.156 3 279 10.4 101690 63
2007-03-27 08:40 51°14.748 2°52.811 3 287 10.3 101690 63
2007-03-27 08:41 51°14.777 2°52.464 2.4 279 10.2 101690 63
2007-03-27 08:42 51°14.808 2°52.119 2.5 334 10.1 101690 63
2007-03-27 08:43 51°14.839 2°51.775 1.6 282 10.1 101690 64
2007-03-27 08:44 51°14.872 2°51.431 2 280 10.2 101690 64
2007-03-27 08:45 51°14.941 2°51.099 1.4 278 10.2 101690 64
2007-03-27 08:46 51°15.018 2°50.771 1.1 283 10.3 101680 64
2007-03-27 08:47 51°15.091 2°50.441 1.3 281 10.4 101680 64
2007-03-27 08:48 51°15.164 2°50.115 1.6 278 10.4 101680 64
2007-03-27 08:49 51°15.234 2°49.787 2.5 283 10.4 101690 64
2007-03-27 08:50 51°15.305 2°49.459 2.9 287 10.5 101680 64
2007-03-27 08:51 51°15.377 2°49.134 3.5 281 10.3 101680 65
2007-03-27 08:52 51°15.448 2°48.808 2.7 286 10.1 101680 66
2007-03-27 08:53 51°15.515 2°48.482 2.3 283 10 101690 67
2007-03-27 08:54 51°15.578 2°48.15 1.7 282 10 101680 68
2007-03-27 08:55 51°15.627 2°47.812 2.3 279 10.1 101670 68
2007-03-27 08:56 51°15.661 2°47.471 2.3 284 10.1 101670 67
2007-03-27 08:57 51°15.691 2°47.131 3.3 278 10.1 101670 68
2007-03-27 08:58 51°15.721 2°46.793 4 278 10.1 101680 68
2007-03-27 08:59 51°15.749 2°46.455 3.8 280 10 101670 68
2007-03-27 09:00 51°15.823 2°46.135 4.1 280 9.8 101670 69
2007-03-27 09:01 51°15.934 2°45.836 3.9 354 9.6 101680 69
2007-03-27 09:02 51°16.046 2°45.538 2.7 358 9.5 101680 70
2007-03-27 09:03 51°16.164 2°45.243 2.4 1 9.4 101680 70
2007-03-27 09:04 51°16.294 2°44.957 2.5 7 9.4 101680 70
2007-03-27 09:05 51°16.424 2°44.67 2.5 356 9.4 101680 71
2007-03-27 09:06 51°16.56 2°44.386 3 359 9.4 101670 71
2007-03-27 09:07 51°16.702 2°44.11 4.1 348 9.4 101670 71
2007-03-27 09:08 51°16.839 2°43.833 4 352 9.3 101670 72
2007-03-27 09:09 51°16.975 2°43.56 3.8 352 9.3 101670 72
2007-03-27 09:10 51°17.111 2°43.286 3.9 354 9.2 101680 73
2007-03-27 09:11 51°17.247 2°43.009 4.4 354 9.2 101670 74
2007-03-27 09:12 51°17.383 2°42.732 4 356 9.1 101670 74
2007-03-27 09:13 51°17.526 2°42.458 3.8 358 9.1 101670 75
2007-03-27 09:14 51°17.67 2°42.183 3.9 4 9.1 101670 75
2007-03-27 09:15 51°17.814 2°41.908 3.7 -999 9 101660 75
2007-03-27 09:16 51°17.959 2°41.63 3.3 355 9 101660 76
2007-03-27 09:17 51°18.098 2°41.345 3.3 357 9 101670 76
2007-03-27 09:18 51°18.236 2°41.065 3.4 1 9 101670 77
2007-03-27 09:19 51°18.375 2°40.791 3.8 356 9 101670 78
2007-03-27 09:20 51°18.513 2°40.516 3.2 -999 9 101660 78
2007-03-27 09:21 51°18.652 2°40.243 3.9 -999 8.9 101670 79
2007-03-27 09:22 51°18.793 2°39.967 4.6 358 8.9 101660 79
2007-03-27 09:23 51°18.936 2°39.692 3.4 -999 9 101660 79
2007-03-27 09:24 51°19.081 2°39.418 3.7 350 9 101660 79
2007-03-27 09:25 51°19.224 2°39.142 3.6 -999 9 101650 78
2007-03-27 09:26 51°19.368 2°38.869 3.6 2 9 101650 78
2007-03-27 09:27 51°19.514 2°38.593 3.4 3 9 101670 78
2007-03-27 09:28 51°19.664 2°38.328 3.3 356 9 101650 77
2007-03-27 09:29 51°19.823 2°38.077 3.8 358 9 101650 77
2007-03-27 09:30 51°19.98 2°37.824 3.5 356 9 101650 76
2007-03-27 09:31 51°20.125 2°37.559 3 359 9.1 101650 76
2007-03-27 09:32 51°20.221 2°37.345 2.1 -999 9.1 101660 76
2007-03-27 09:33 51°20.199 2°37.238 3.2 -999 9.2 101660 77
2007-03-27 09:34 51°20.169 2°37.148 2.8 -999 9.3 101660 76
2007-03-27 09:35 51°20.143 2°37.059 2.8 279 9.4 101660 75
2007-03-27 09:36 51°20.119 2°36.988 4.9 282 9.4 101660 75
2007-03-27 09:37 51°20.102 2°36.938 4.5 74 9.4 101660 74
2007-03-27 09:38 51°20.091 2°36.9 4.7 -999 9.5 101660 74
2007-03-27 09:39 51°20.077 2°36.884 5.4 280 9.5 101660 74
2007-03-27 09:40 51°20.061 2°36.887 5.2 -999 9.5 101660 74
2007-03-27 09:41 51°20.047 2°36.909 6.1 302 9.7 101660 74
2007-03-27 09:42 51°20.038 2°36.937 5.9 -999 9.7 101650 73
2007-03-27 09:43 51°20.033 2°36.959 5.2 -999 9.7 101650 73
2007-03-27 09:44 51°20.03 2°36.978 5.4 283 9.7 101660 73
2007-03-27 09:45 51°20.028 2°36.993 5.6 -999 9.7 101650 73
2007-03-27 09:46 51°20.027 2°37.005 4.9 284 9.7 101650 72
2007-03-27 09:47 51°20.027 2°37.015 5.3 -999 9.7 101650 72
2007-03-27 09:48 51°20.028 2°37.023 5.5 280 9.7 101650 72
2007-03-27 09:49 51°20.03 2°37.029 5 281 9.7 101650 73
2007-03-27 09:50 51°20.032 2°37.034 5.4 278 9.8 101650 73
2007-03-27 09:51 51°20.035 2°37.038 5.2 286 9.8 101650 72
2007-03-27 09:52 51°20.035 2°37.043 5.4 -999 9.8 101650 72
2007-03-27 09:53 51°20.02 2°37.047 4.5 285 9.8 101650 72
2007-03-27 09:54 51°20.001 2°37.026 3.4 -999 9.8 101650 72
2007-03-27 09:55 51°20 2°36.986 1.8 75 9.7 101650 72
2007-03-27 09:56 51°20.013 2°36.956 3.9 -999 9.8 101650 72
2007-03-27 09:57 51°20.03 2°36.938 4.8 42 9.7 101650 72
2007-03-27 09:58 51°20.045 2°36.925 5 43 9.7 101650 73
2007-03-27 09:59 51°20.059 2°36.918 4.3 38 9.6 101640 73
2007-03-27 10:00 51°20.069 2°36.917 5.1 34 9.6 101640 73
2007-03-27 10:01 51°20.074 2°36.919 4.1 32 9.6 101640 74
2007-03-27 10:02 51°20.08 2°36.921 4.4 -999 9.5 101640 74
2007-03-27 10:03 51°20.086 2°36.922 4.3 30 9.5 101640 74
2007-03-27 10:04 51°20.089 2°36.922 4.7 29 9.5 101640 74
2007-03-27 10:05 51°20.09 2°36.925 4 32 9.6 101640 74
2007-03-27 10:06 51°20.091 2°36.927 3.8 -999 9.6 101640 74
2007-03-27 10:07 51°20.088 2°36.934 4.3 -999 9.6 101630 74
2007-03-27 10:08 51°20.07 2°36.965 4.6 44 9.6 101630 74
2007-03-27 10:09 51°20.067 2°36.984 4.3 -999 9.6 101640 74
2007-03-27 10:10 51°20.067 2°36.996 3.5 74 9.6 101640 75
2007-03-27 10:11 51°20.068 2°37.007 4.3 -999 9.6 101640 75
2007-03-27 10:12 51°20.069 2°37.017 3.6 80 9.5 101640 75
2007-03-27 10:13 51°20.07 2°37.024 4.3 -999 9.5 101640 75
2007-03-27 10:14 51°20.072 2°37.029 3.4 82 9.5 101630 75
2007-03-27 10:15 51°20.074 2°37.032 4.4 -999 9.5 101630 75
2007-03-27 10:16 51°20.077 2°37.033 3.7 43 9.5 101630 75
2007-03-27 10:17 51°20.08 2°37.034 4.7 -999 9.5 101630 75
2007-03-27 10:18 51°20.083 2°37.034 3.9 34 9.6 101630 75
2007-03-27 10:19 51°20.086 2°37.035 4.2 -999 9.6 101630 74
2007-03-27 10:20 51°20.089 2°37.035 4.5 32 9.6 101630 74
2007-03-27 10:21 51°20.09 2°37.034 5.1 -999 9.6 101630 74
2007-03-27 10:22 51°20.092 2°37.033 4.8 27 9.7 101630 74
2007-03-27 10:23 51°20.092 2°37.031 3.9 -999 9.7 101630 74
2007-03-27 10:24 51°20.092 2°37.029 4 29 9.8 101630 74
2007-03-27 10:25 51°20.091 2°37.028 4.2 -999 9.7 101630 74
2007-03-27 10:26 51°20.089 2°37.028 4.2 -999 9.8 101630 74
2007-03-27 10:27 51°20.088 2°37.029 4.1 35 9.8 101630 74
2007-03-27 10:28 51°20.087 2°37.029 3.8 -999 9.8 101640 74
2007-03-27 10:29 51°20.085 2°37.03 4 36 9.8 101630 74
2007-03-27 10:30 51°20.085 2°37.03 3.9 34 9.8 101630 75
2007-03-27 10:31 51°20.083 2°37.03 3.7 33 9.7 101630 75
2007-03-27 10:32 51°20.082 2°37.03 3.2 -999 9.7 101630 76
2007-03-27 10:33 51°20.081 2°37.029 3 -999 9.7 101620 76
2007-03-27 10:34 51°20.079 2°37.028 3.5 38 9.7 101620 77
2007-03-27 10:35 51°20.077 2°37.026 3.8 -999 9.7 101630 78
2007-03-27 10:36 51°20.075 2°37.024 3.5 38 9.7 101620 78
2007-03-27 10:37 51°20.073 2°37.023 3.5 -999 9.7 101620 79
2007-03-27 10:38 51°20.073 2°37.022 3.1 38 9.7 101620 79
2007-03-27 10:39 51°20.071 2°37.019 3.4 -999 9.7 101620 80
2007-03-27 10:40 51°20.07 2°37.017 2.6 35 9.7 101620 80
2007-03-27 10:41 51°20.068 2°37.014 3.1 36 9.7 101620 80
2007-03-27 10:42 51°20.066 2°37.012 2.8 33 9.7 101620 81
2007-03-27 10:43 51°20.065 2°37.01 2.9 -999 9.7 101620 81
2007-03-27 10:44 51°20.063 2°37.006 3.1 36 9.7 101620 81
2007-03-27 10:45 51°20.062 2°37.003 3.9 -999 9.7 101620 82
2007-03-27 10:46 51°20.059 2°36.999 4.3 33 9.7 101620 82
2007-03-27 10:47 51°20.056 2°36.995 4.4 -999 9.6 101620 81
2007-03-27 10:48 51°20.052 2°36.989 6 31 9.6 101620 81
2007-03-27 10:49 51°20.049 2°36.984 4.9 -999 9.7 101610 81
2007-03-27 10:50 51°20.044 2°36.978 4.5 33 9.7 101620 81
2007-03-27 10:51 51°20.04 2°36.973 4.2 -999 9.7 101610 81
2007-03-27 10:52 51°20.036 2°36.967 4.9 35 9.7 101620 81
2007-03-27 10:53 51°20.031 2°36.96 4.8 -999 9.7 101610 81
2007-03-27 10:54 51°20.027 2°36.952 4.8 -999 9.7 101610 81
2007-03-27 10:55 51°20.023 2°36.944 5 35 9.7 101620 81
2007-03-27 10:56 51°20.02 2°36.936 4.5 -999 9.7 101620 81
2007-03-27 10:57 51°20.016 2°36.927 5 35 9.6 101620 82
2007-03-27 10:58 51°20.013 2°36.918 4.7 -999 9.6 101620 82
2007-03-27 10:59 51°20.009 2°36.908 4.5 33 9.7 101620 82
2007-03-27 11:00 51°20.006 2°36.899 4.5 -999 9.6 101620 82
2007-03-27 11:01 51°20.002 2°36.89 4.2 34 9.6 101620 82
2007-03-27 11:02 51°19.998 2°36.882 4.2 31 9.7 101610 81
2007-03-27 11:03 51°19.994 2°36.873 4.4 32 9.7 101610 81
2007-03-27 11:04 51°19.99 2°36.864 4.7 34 9.7 101610 81
2007-03-27 11:05 51°19.985 2°36.854 4.6 32 9.7 101610 81
2007-03-27 11:06 51°19.981 2°36.845 3.9 -999 9.7 101610 81
2007-03-27 11:07 51°19.976 2°36.834 4.2 33 9.7 101610 81
2007-03-27 11:08 51°19.971 2°36.824 4.6 -999 9.8 101610 81
2007-03-27 11:09 51°19.966 2°36.814 4.5 34 9.7 101610 81
2007-03-27 11:10 51°19.961 2°36.803 3.9 -999 9.7 101610 81
2007-03-27 11:11 51°19.968 2°36.779 4.5 13 9.7 101610 81
2007-03-27 11:12 51°20.004 2°36.771 4.9 -999 9.7 101610 81
2007-03-27 11:13 51°20.029 2°36.783 4.7 281 9.7 101600 81
2007-03-27 11:14 51°20.045 2°36.792 4.9 -999 9.6 101610 81
2007-03-27 11:15 51°20.056 2°36.793 4.4 349 9.6 101610 81
2007-03-27 11:16 51°20.064 2°36.789 4.1 354 9.6 101610 82
2007-03-27 11:17 51°20.067 2°36.778 4.2 358 9.5 101600 82
2007-03-27 11:18 51°20.066 2°36.764 3.6 -999 9.5 101600 82
2007-03-27 11:19 51°20.064 2°36.75 3.9 -999 9.5 101600 83
2007-03-27 11:20 51°20.062 2°36.736 4.6 14 9.5 101600 83
2007-03-27 11:21 51°20.058 2°36.722 4.5 -999 9.6 101600 83
2007-03-27 11:22 51°20.054 2°36.707 4.2 -999 9.6 101600 83
2007-03-27 11:23 51°20.049 2°36.693 3.9 25 9.7 101600 83
2007-03-27 11:24 51°20.044 2°36.68 4.3 29 9.7 101600 83
2007-03-27 11:25 51°20.039 2°36.666 3.8 -999 9.7 101600 83
2007-03-27 11:26 51°20.034 2°36.652 4.2 30 9.7 101600 83
2007-03-27 11:27 51°20.028 2°36.639 4.7 -999 9.7 101600 83
2007-03-27 11:28 51°20.022 2°36.625 4.6 31 9.7 101600 83
2007-03-27 11:29 51°20.017 2°36.611 4.5 -999 9.7 101600 84
2007-03-27 11:30 51°20.011 2°36.597 4.7 28 9.7 101600 84
2007-03-27 11:31 51°20.005 2°36.582 4.3 -999 9.7 101600 84
2007-03-27 11:32 51°19.999 2°36.568 3.8 28 9.7 101600 84
2007-03-27 11:33 51°19.993 2°36.555 3.9 28 9.7 101600 84
2007-03-27 11:34 51°19.987 2°36.539 4.3 27 9.7 101600 85
2007-03-27 11:35 51°19.987 2°36.513 3.7 25 9.7 101590 85
2007-03-27 11:36 51°20.009 2°36.454 4.2 -999 9.7 101600 85
2007-03-27 11:37 51°20.049 2°36.378 4.5 13 9.7 101590 85
2007-03-27 11:38 51°20.084 2°36.314 4.9 11 9.6 101590 85
2007-03-27 11:39 51°20.108 2°36.267 5.5 11 9.6 101590 86
2007-03-27 11:40 51°20.126 2°36.23 5.1 13 9.6 101590 86
2007-03-27 11:41 51°20.137 2°36.2 5.8 12 9.5 101590 86
2007-03-27 11:42 51°20.144 2°36.175 6.1 12 9.5 101590 87
2007-03-27 11:43 51°20.154 2°36.151 5.4 1 9.5 101590 87
2007-03-27 11:44 51°20.222 2°36.18 7.5 -999 9.5 101580 87
2007-03-27 11:45 51°20.193 2°36.302 6.3 278 9.6 101570 88
2007-03-27 11:46 51°20.111 2°36.448 7.3 284 9.6 101580 88
2007-03-27 11:47 51°20.021 2°36.585 6.1 278 9.6 101570 87
2007-03-27 11:48 51°20.007 2°36.684 7.1 -999 9.6 101580 87
2007-03-27 11:49 51°20.032 2°36.743 6.6 280 9.7 101580 87
2007-03-27 11:50 51°20.06 2°36.788 5.8 -999 9.8 101580 87
2007-03-27 11:51 51°20.087 2°36.834 6.5 -999 9.8 101570 86
2007-03-27 11:52 51°20.109 2°36.851 3.9 2 9.8 101570 86
2007-03-27 11:53 51°20.093 2°36.834 5.3 -999 9.7 101580 85
2007-03-27 11:54 51°20.099 2°36.811 5.5 29 9.7 101580 86
2007-03-27 11:55 51°20.084 2°36.821 5.5 -999 9.7 101580 86
2007-03-27 11:56 51°20.075 2°36.824 6.1 38 9.7 101580 86
2007-03-27 11:57 51°20.066 2°36.824 5.3 -999 9.6 101580 86
2007-03-27 11:58 51°20.058 2°36.824 5.6 43 9.6 101580 86
2007-03-27 11:59 51°20.051 2°36.834 6.2 -999 9.6 101580 85
2007-03-27 12:00 51°20.046 2°36.845 5.3 75 9.6 101580 85
2007-03-27 12:01 51°20.043 2°36.853 5.8 76 9.6 101580 85
2007-03-27 12:02 51°20.042 2°36.858 4.8 81 9.6 101580 85
2007-03-27 12:03 51°20.041 2°36.863 5.8 80 9.6 101580 85
2007-03-27 12:04 51°20.041 2°36.867 4.2 75 9.6 101580 85
2007-03-27 12:05 51°20.04 2°36.867 5.3 80 9.6 101580 85
2007-03-27 12:06 51°20.041 2°36.866 5.6 79 9.6 101580 85
2007-03-27 12:07 51°20.042 2°36.865 6 74 9.6 101580 85
2007-03-27 12:08 51°20.043 2°36.865 6 78 9.6 101580 84
2007-03-27 12:09 51°20.044 2°36.865 6.1 79 9.6 101580 84
2007-03-27 12:10 51°20.044 2°36.866 6.3 80 9.6 101570 84
2007-03-27 12:11 51°20.044 2°36.867 5.1 80 9.6 101570 84
2007-03-27 12:12 51°20.043 2°36.869 6.1 80 9.6 101570 84
2007-03-27 12:13 51°20.043 2°36.87 5.9 75 9.6 101580 84
2007-03-27 12:14 51°20.043 2°36.87 4.7 80 9.6 101570 84
2007-03-27 12:15 51°20.045 2°36.869 5.4 81 9.6 101570 84
2007-03-27 12:16 51°20.045 2°36.867 4.6 76 9.6 101570 84
2007-03-27 12:17 51°20.047 2°36.864 4.7 74 9.7 101570 83
2007-03-27 12:18 51°20.049 2°36.86 5.6 77 9.7 101570 83
2007-03-27 12:19 51°20.051 2°36.857 5.6 79 9.7 101570 83
2007-03-27 12:20 51°20.053 2°36.856 5.8 80 9.7 101570 83
2007-03-27 12:21 51°20.054 2°36.863 6 76 9.8 101570 83
2007-03-27 12:22 51°20.056 2°36.875 4.5 81 9.7 101560 83
2007-03-27 12:23 51°20.058 2°36.88 3.5 80 9.7 101560 83
2007-03-27 12:24 51°20.061 2°36.881 4.3 74 9.8 101560 83
2007-03-27 12:25 51°20.065 2°36.877 2.7 81 10.1 101560 84
2007-03-27 12:26 51°20.068 2°36.872 3.4 81 10.5 101570 82
2007-03-27 12:27 51°20.071 2°36.867 3.9 80 10.5 101570 80
2007-03-27 12:28 51°20.079 2°36.882 5.1 80 10.3 101560 79
2007-03-27 12:29 51°20.082 2°36.888 5.2 76 10.1 101560 80
2007-03-27 12:30 51°20.083 2°36.89 4.4 80 10 101560 80
2007-03-27 12:31 51°20.084 2°36.887 5.3 75 9.9 101560 81
2007-03-27 12:32 51°20.085 2°36.883 4.5 80 9.9 101560 81
2007-03-27 12:33 51°20.086 2°36.882 4.6 73 9.8 101550 81
2007-03-27 12:34 51°20.087 2°36.882 4.3 78 9.8 101550 81
2007-03-27 12:35 51°20.087 2°36.884 4.1 79 9.8 101560 81
2007-03-27 12:36 51°20.086 2°36.884 3.3 80 9.8 101550 80
2007-03-27 12:37 51°20.086 2°36.885 4.2 76 9.9 101550 80
2007-03-27 12:38 51°20.086 2°36.886 4.7 80 9.9 101550 80
2007-03-27 12:39 51°20.085 2°36.887 3.5 75 9.9 101550 79
2007-03-27 12:40 51°20.087 2°36.893 3.8 -999 10 101550 79
2007-03-27 12:41 51°20.094 2°36.916 3.6 -999 10 101550 79
2007-03-27 12:42 51°20.097 2°36.918 4 81 10.1 101550 80
2007-03-27 12:43 51°20.097 2°36.912 4.8 -999 10.5 101550 80
2007-03-27 12:44 51°20.093 2°36.896 2.4 80 10.6 101550 77
2007-03-27 12:45 51°20.088 2°36.874 3.5 -999 10.8 101550 77
2007-03-27 12:46 51°20.087 2°36.864 5.2 75 10.9 101540 75
2007-03-27 12:47 51°20.083 2°36.854 5.2 -999 10.6 101540 74
2007-03-27 12:48 51°20.078 2°36.837 4.1 81 10.5 101540 75
2007-03-27 12:49 51°20.077 2°36.84 4.7 -999 10.4 101540 75
2007-03-27 12:50 51°20.079 2°36.85 4.2 79 10.3 101540 76
2007-03-27 12:51 51°20.08 2°36.853 6.1 -999 10.3 101530 77
2007-03-27 12:52 51°20.083 2°36.864 4.4 79 10.2 101540 77
2007-03-27 12:53 51°20.085 2°36.866 4 -999 10.2 101530 78
2007-03-27 12:54 51°20.088 2°36.871 5.2 80 10.2 101530 78
2007-03-27 12:55 51°20.091 2°36.873 4.8 74 10.1 101530 78
2007-03-27 12:56 51°20.092 2°36.873 6.5 76 10.1 101530 78
2007-03-27 12:57 51°20.09 2°36.87 6.5 56 10.1 101530 79
2007-03-27 12:58 51°20.085 2°36.86 5.8 75 10.1 101530 79
2007-03-27 12:59 51°20.077 2°36.836 5.7 44 10 101530 80
2007-03-27 13:00 51°20.069 2°36.809 6.4 41 10 101520 81
2007-03-27 13:01 51°20.061 2°36.78 6 37 9.9 101520 81
2007-03-27 13:02 51°20.055 2°36.746 5.5 25 9.9 101520 82
2007-03-27 13:03 51°20.063 2°36.696 5 3 9.9 101510 82
2007-03-27 13:04 51°20.103 2°36.676 7 286 9.9 101500 82
2007-03-27 13:05 51°20.121 2°36.722 6.2 305 9.9 101500 83
2007-03-27 13:06 51°20.107 2°36.752 5.7 285 9.9 101500 83
2007-03-27 13:07 51°20.089 2°36.765 6 278 10 101500 83
2007-03-27 13:08 51°20.075 2°36.769 5.2 285 10 101500 84
2007-03-27 13:09 51°20.062 2°36.764 6.2 305 10.1 101500 84
2007-03-27 13:10 51°20.049 2°36.755 5.7 280 10.1 101490 83
2007-03-27 13:11 51°20.036 2°36.743 6.2 306 10.1 101500 83
2007-03-27 13:12 51°20.024 2°36.749 6.4 286 10.2 101500 84
2007-03-27 13:13 51°20.025 2°36.777 6.5 303 10.1 101490 83
2007-03-27 13:14 51°20.043 2°36.807 7.2 284 10.1 101490 83
2007-03-27 13:15 51°20.064 2°36.795 6.5 357 10 101490 83
2007-03-27 13:16 51°20.073 2°36.762 5.2 5 9.9 101490 83
2007-03-27 13:17 51°20.075 2°36.724 6.6 8 9.8 101490 84
2007-03-27 13:18 51°20.076 2°36.686 5.2 6 9.8 101500 84
2007-03-27 13:19 51°20.073 2°36.649 4.6 3 9.7 101490 85
2007-03-27 13:20 51°20.071 2°36.613 6.7 359 9.7 101490 85
2007-03-27 13:21 51°20.108 2°36.617 8.3 302 9.7 101480 86
2007-03-27 13:22 51°20.088 2°36.719 8.7 280 9.8 101480 86
2007-03-27 13:23 51°20.02 2°36.976 9.6 280 9.8 101480 86
2007-03-27 13:24 51°19.881 2°37.241 7 285 9.8 101490 85
2007-03-27 13:25 51°19.676 2°37.391 5.7 283 9.9 101490 85
2007-03-27 13:26 51°19.459 2°37.512 5.2 279 9.9 101490 85
2007-03-27 13:27 51°19.243 2°37.633 5.7 285 9.9 101490 85
2007-03-27 13:28 51°19.026 2°37.764 5.3 280 10 101480 85
2007-03-27 13:29 51°18.81 2°37.897 5.3 278 10 101480 85
2007-03-27 13:30 51°18.594 2°38.032 5.7 278 10 101480 85
2007-03-27 13:31 51°18.379 2°38.168 5.7 304 10 101480 85
2007-03-27 13:32 51°18.163 2°38.302 5.6 279 10 101480 85
2007-03-27 13:33 51°17.948 2°38.442 5.4 302 10 101470 85
2007-03-27 13:34 51°17.73 2°38.576 5.5 284 10 101480 85
2007-03-27 13:35 51°17.513 2°38.711 5.9 280 10 101470 85
2007-03-27 13:36 51°17.3 2°38.842 6.7 280 10 101470 85
2007-03-27 13:37 51°17.092 2°38.972 5.9 281 10 101470 84
2007-03-27 13:38 51°16.89 2°39.104 7.4 278 10.1 101470 84
2007-03-27 13:39 51°16.681 2°39.244 7.7 281 10.1 101460 83
2007-03-27 13:40 51°16.468 2°39.371 6.4 310 10.2 101460 83
2007-03-27 13:41 51°16.254 2°39.501 6.2 284 10.3 101460 81
2007-03-27 13:42 51°16.038 2°39.632 6 309 10.3 101460 80
2007-03-27 13:43 51°15.819 2°39.766 4.9 280 10.4 101460 79
2007-03-27 13:44 51°15.601 2°39.902 5 308 10.5 101460 79
2007-03-27 13:45 51°15.381 2°40.038 5.8 308 10.5 101460 79
2007-03-27 13:46 51°15.171 2°40.196 6.2 285 10.5 101450 79
2007-03-27 13:47 51°14.964 2°40.357 6.8 280 10.4 101450 78
2007-03-27 13:48 51°14.777 2°40.556 7.3 285 10.4 101450 78
2007-03-27 13:49 51°14.651 2°40.831 8.9 307 10.4 101440 78
2007-03-27 13:50 51°14.571 2°41.147 8.9 280 10.3 101430 79
2007-03-27 13:51 51°14.528 2°41.478 10.1 279 10.2 101430 80
2007-03-27 13:52 51°14.514 2°41.813 10.1 280 10.2 101430 81
2007-03-27 13:53 51°14.451 2°42.135 8.7 279 10.2 101430 81
2007-03-27 13:54 51°14.337 2°42.431 9 280 10.1 101430 81
2007-03-27 13:55 51°14.239 2°42.736 11.2 282 10.1 101410 80
2007-03-27 13:56 51°14.223 2°43.062 12.5 -999 10.2 101410 79
2007-03-27 13:57 51°14.258 2°43.386 12.5 277 10.3 101400 78
2007-03-27 13:58 51°14.29 2°43.71 13.2 285 10.4 101400 77
2007-03-27 13:59 51°14.328 2°44.031 13 286 10.6 101410 76
2007-03-27 14:00 51°14.362 2°44.356 11.9 -999 10.7 101400 75
2007-03-27 14:01 51°14.392 2°44.682 11.7 306 10.7 101400 75
2007-03-27 14:02 51°14.421 2°45.007 12 -999 10.7 101400 75
2007-03-27 14:03 51°14.451 2°45.327 11.3 302 10.7 101410 75
2007-03-27 14:04 51°14.478 2°45.647 11.9 -999 10.6 101410 75
2007-03-27 14:05 51°14.494 2°45.986 11.9 302 10.7 101410 74
2007-03-27 14:06 51°14.516 2°46.323 10.5 -999 10.8 101400 74
2007-03-27 14:07 51°14.537 2°46.652 14 279 10.7 101400 76
2007-03-27 14:08 51°14.558 2°46.979 15.7 -999 10.8 101380 73
2007-03-27 14:09 51°14.58 2°47.304 14.8 284 11 101390 70
2007-03-27 14:10 51°14.601 2°47.629 13.9 284 11.2 101380 68
2007-03-27 14:11 51°14.621 2°47.955 14.5 282 11.2 101380 68
2007-03-27 14:12 51°14.642 2°48.283 13.2 284 11.2 101390 67
2007-03-27 14:13 51°14.662 2°48.611 13 282 11.3 101390 68
2007-03-27 14:14 51°14.681 2°48.94 13.3 279 11.2 101380 68
2007-03-27 14:15 51°14.702 2°49.267 12.8 287 11.2 101380 68
2007-03-27 14:16 51°14.72 2°49.594 12 282 11.2 101380 68
2007-03-27 14:17 51°14.74 2°49.923 12.8 277 11.2 101380 69
2007-03-27 14:18 51°14.759 2°50.25 13.6 -999 11.2 101380 69
2007-03-27 14:19 51°14.775 2°50.575 14.6 284 11.2 101370 69
2007-03-27 14:20 51°14.781 2°50.903 15.6 -999 11.2 101370 69
2007-03-27 14:21 51°14.788 2°51.228 14.4 306 11.3 101370 68
2007-03-27 14:22 51°14.794 2°51.554 14.5 -999 11.2 101370 69
2007-03-27 14:23 51°14.8 2°51.88 14.4 308 11.2 101370 70
2007-03-27 14:24 51°14.806 2°52.207 13.4 -999 11.1 101370 71
2007-03-27 14:25 51°14.813 2°52.534 13.6 307 11.1 101370 70
2007-03-27 14:26 51°14.82 2°52.863 13.9 281 11 101370 71
2007-03-27 14:27 51°14.829 2°53.199 12.5 -999 11 101380 71
2007-03-27 14:28 51°14.818 2°53.539 12.7 307 11 101370 70
2007-03-27 14:29 51°14.751 2°53.859 12.1 -999 11.2 101380 68
2007-03-27 14:30 51°14.676 2°54.155 10.7 307 11.1 101380 68
2007-03-27 14:31 51°14.583 2°54.418 11.2 -999 11.1 101370 69
2007-03-27 14:32 51°14.493 2°54.68 10.1 -999 11.2 101370 68
2007-03-27 14:33 51°14.4 2°54.94 10.9 309 11.2 101380 68
2007-03-27 14:34 51°14.304 2°55.201 9.1 -999 11.2 101390 68
2007-03-27 14:35 51°14.16 2°55.388 5.8 281 11.3 101390 67
2007-03-27 14:36 51°14.034 2°55.479 6 -999 11.7 101400 67
2007-03-27 14:37 51°13.938 2°55.546 6.2 303 12.2 101400 64
2007-03-27 14:38 51°13.854 2°55.616 5.5 279 12.9 101390 57
2007-03-27 14:39 51°13.737 2°55.756 8 303 13.7 101380 49
2007-03-27 14:40 51°13.664 2°55.895 5.4 284 14.6 101380 44
2007-03-27 14:41 51°13.627 2°55.99 7.3 307 15.1 101380 42
2007-03-27 14:42 51°13.607 2°56.065 5 282 15.5 101390 40
2007-03-27 14:43 51°13.602 2°56.098 4.7 303 15.7 101390 40